14 août 2022

Temps Code Temps Temp. Vue Base cloud Vent METAR/SPECI
01:50
V
16 °C 10 km+ - Var Var 2 kt METAR EDDS 132350Z AUTO VRB02KT CAVOK 16/09 Q1014
01:20
V
16 °C 10 km+ - 300° 300° 2 kt METAR EDDS 132320Z AUTO 30002KT CAVOK 16/09 Q1014
00:50
V
16 °C 10 km+ - 250° 250° 1 kt METAR EDDS 132250Z AUTO 25001KT CAVOK 16/09 Q1014
00:20
V
17 °C 10 km+ - 260° 260° 1 kt METAR EDDS 132220Z AUTO 26001KT CAVOK 17/09 Q1014

13 août 2022

Temps Code Temps Temp. Vue Base cloud Vent METAR/SPECI
23:50
V
19 °C 10 km+ - 280° 280° 3 kt METAR EDDS 132150Z AUTO 28003KT CAVOK 19/09 Q1014
23:20
V
19 °C 10 km+ - Var Var 1 kt METAR EDDS 132120Z AUTO VRB01KT CAVOK 19/09 Q1014
22:50
V
20 °C 10 km+ - Var Var 2 kt METAR EDDS 132050Z AUTO VRB02KT CAVOK 20/09 Q1014
22:20
V
21 °C 10 km+ - Var Var 2 kt METAR EDDS 132020Z AUTO VRB02KT CAVOK 21/08 Q1014
21:50
V
21 °C 10 km+ - Var Var 2 kt METAR EDDS 131950Z AUTO VRB02KT CAVOK 21/08 Q1014 NOSIG
21:20
V
22 °C 10 km+ - Var Var 1 kt METAR EDDS 131920Z AUTO VRB01KT CAVOK 22/08 Q1014 NOSIG
20:50
V
23 °C 10 km+ - Var Var 2 kt METAR EDDS 131850Z AUTO VRB02KT CAVOK 23/08 Q1014 NOSIG
20:20
V
26 °C 10 km+ - Var Var 2 kt METAR EDDS 131820Z AUTO VRB02KT CAVOK 26/08 Q1014 NOSIG
19:50
V
27 °C 10 km+ - Var Var 2 kt METAR EDDS 131750Z AUTO VRB02KT CAVOK 27/08 Q1014 NOSIG
19:20
V
27 °C 10 km+ - 110° 110° 3 kt METAR EDDS 131720Z AUTO 11003KT 060V190 CAVOK 27/08 Q1014 NOSIG
18:50
V
28 °C 10 km+ - 070° 070° 5 kt METAR EDDS 131650Z AUTO 07005KT 030V190 CAVOK 28/07 Q1014 NOSIG
18:20
V
28 °C 10 km+ - 080° 080° 6 kt METAR EDDS 131620Z AUTO 08006KT CAVOK 28/07 Q1014 NOSIG
17:50
V
28 °C 10 km+ - 090° 090° 4 kt METAR EDDS 131550Z AUTO 09004KT 030V140 CAVOK 28/07 Q1015 NOSIG
17:20
V
28 °C 10 km+ - 130° 130° 5 kt METAR EDDS 131520Z AUTO 13005KT 080V200 CAVOK 28/07 Q1015 NOSIG
16:50
V
28 °C 10 km+ - 070° 070° 6 kt METAR EDDS 131450Z AUTO 07006KT 030V120 CAVOK 28/07 Q1015 NOSIG
16:20
V
28 °C 10 km+ - Var Var 6 kt METAR EDDS 131420Z AUTO VRB06KT CAVOK 28/07 Q1015 NOSIG
15:50
V
28 °C 10 km+ - Var Var 6 kt METAR EDDS 131350Z AUTO VRB06KT CAVOK 28/07 Q1015 NOSIG
15:20
V
28 °C 10 km+ - 080° 080° 8 kt METAR EDDS 131320Z AUTO 08008KT 050V130 CAVOK 28/08 Q1016 NOSIG
14:50
V
27 °C 10 km+ - 060° 060° 8 kt METAR EDDS 131250Z AUTO 06008KT 020V150 CAVOK 27/08 Q1016 NOSIG
14:20
V
27 °C 10 km+ - Var Var 9 kt METAR EDDS 131220Z AUTO VRB09KT CAVOK 27/09 Q1016 NOSIG
13:50
V
26 °C 10 km+ - 050° 050° 13 kt METAR EDDS 131150Z AUTO 05013KT 350V090 CAVOK 26/09 Q1016 NOSIG
13:20
V
27 °C 10 km+ - 060° 060° 6 kt METAR EDDS 131120Z AUTO 06006KT 010V120 CAVOK 27/09 Q1016 NOSIG
12:50
V
26 °C 10 km+ - 030° 030° 10 kt METAR EDDS 131050Z AUTO 03010KT 360V080 CAVOK 26/09 Q1016 NOSIG
12:20
V
24 °C 10 km+ - 050° 050° 10 kt METAR EDDS 131020Z AUTO 05010KT 020V090 CAVOK 24/09 Q1017 NOSIG
11:50
V
24 °C 10 km+ - 060° 060° 8 kt METAR EDDS 130950Z AUTO 06008KT 030V100 CAVOK 24/10 Q1017 NOSIG
11:20
V
23 °C 10 km+ - 070° 070° 7 kt METAR EDDS 130920Z AUTO 07007KT 020V100 CAVOK 23/10 Q1017 NOSIG
10:50
V
22 °C 10 km+ - 080° 080° 7 kt METAR EDDS 130850Z AUTO 08007KT 040V120 CAVOK 22/10 Q1017 NOSIG
10:20
V
22 °C 10 km+ - 070° 070° 7 kt METAR EDDS 130820Z AUTO 07007KT CAVOK 22/10 Q1017 NOSIG
09:50
V
20 °C 10 km+ - 040° 040° 5 kt METAR EDDS 130750Z AUTO 04005KT 360V090 CAVOK 20/10 Q1017 NOSIG
09:20
V
20 °C 10 km+ - 010° 010° 5 kt METAR EDDS 130720Z AUTO 01005KT 330V060 CAVOK 20/10 Q1017 NOSIG
08:50
V
19 °C 10 km+ - 020° 020° 3 kt METAR EDDS 130650Z AUTO 02003KT 310V090 CAVOK 19/10 Q1017 NOSIG
08:20
V
18 °C 10 km+ - Var Var 2 kt METAR EDDS 130620Z AUTO VRB02KT CAVOK 18/10 Q1017 NOSIG
07:50
V
18 °C 10 km+ - Var Var 1 kt METAR EDDS 130550Z AUTO VRB01KT CAVOK 18/10 Q1017 NOSIG
07:20
V
15 °C 10 km+ - Var Var 2 kt METAR EDDS 130520Z AUTO VRB02KT CAVOK 15/10 Q1017 NOSIG
06:50
V
14 °C 10 km+ - 280° 280° 4 kt METAR EDDS 130450Z AUTO 28004KT CAVOK 14/09 Q1017 NOSIG
06:20
V
12 °C 10 km+ - 270° 270° 3 kt METAR EDDS 130420Z AUTO 27003KT CAVOK 12/08 Q1017 NOSIG
05:50
V
13 °C 10 km+ - 270° 270° 2 kt METAR EDDS 130350Z AUTO 27002KT CAVOK 13/08 Q1017
05:20
V
14 °C 10 km+ - 350° 350° 3 kt METAR EDDS 130320Z AUTO 35003KT CAVOK 14/08 Q1017
04:50
V
14 °C 10 km+ - 320° 320° 5 kt METAR EDDS 130250Z AUTO 32005KT CAVOK 14/08 Q1017
04:20
V
13 °C 10 km+ - 270° 270° 3 kt METAR EDDS 130220Z AUTO 27003KT CAVOK 13/08 Q1017
03:50
V
14 °C 10 km+ - Var Var 2 kt METAR EDDS 130150Z AUTO VRB02KT CAVOK 14/08 Q1017
03:20
V
14 °C 10 km+ - Var Var 2 kt METAR EDDS 130120Z AUTO VRB02KT CAVOK 14/08 Q1017
02:50
V
15 °C 10 km+ - 360° 360° 2 kt METAR EDDS 130050Z AUTO 36002KT CAVOK 15/08 Q1017
02:20
V
15 °C 10 km+ - Var Var 2 kt METAR EDDS 130020Z AUTO VRB02KT CAVOK 15/08 Q1017
01:50
V
16 °C 10 km+ - Var Var 1 kt METAR EDDS 122350Z AUTO VRB01KT CAVOK 16/08 Q1017
01:20
V
16 °C 10 km+ - Var Var 1 kt METAR EDDS 122320Z AUTO VRB01KT CAVOK 16/08 Q1017
00:50
V
17 °C 10 km+ - 090° 090° 1 kt METAR EDDS 122250Z AUTO 09001KT CAVOK 17/08 Q1017
00:20
V
17 °C 10 km+ - 070° 070° 2 kt METAR EDDS 122220Z AUTO 07002KT CAVOK 17/08 Q1017

12 août 2022

Temps Code Temps Temp. Vue Base cloud Vent METAR/SPECI
23:50
V
17 °C 10 km+ - 080° 080° 3 kt METAR EDDS 122150Z AUTO 08003KT 040V110 CAVOK 17/08 Q1017
23:20
V
18 °C 10 km+ - 090° 090° 6 kt METAR EDDS 122120Z AUTO 09006KT CAVOK 18/08 Q1017
22:50
V
19 °C 10 km+ - 080° 080° 7 kt METAR EDDS 122050Z AUTO 08007KT CAVOK 19/08 Q1017
22:20
V
20 °C 10 km+ - 080° 080° 8 kt METAR EDDS 122020Z AUTO 08008KT CAVOK 20/08 Q1017
21:50
V
21 °C 10 km+ - 080° 080° 8 kt METAR EDDS 121950Z AUTO 08008KT CAVOK 21/07 Q1017 NOSIG
21:20
V
21 °C 10 km+ - 100° 100° 5 kt METAR EDDS 121920Z AUTO 10005KT 070V160 CAVOK 21/07 Q1017 NOSIG
20:50
V
22 °C 10 km+ - 050° 050° 6 kt METAR EDDS 121850Z AUTO 05006KT CAVOK 22/06 Q1016
20:20
V
23 °C 10 km+ - 050° 050° 6 kt METAR EDDS 121820Z AUTO 05006KT CAVOK 23/06 Q1016 NOSIG
19:50
V
25 °C 10 km+ - 070° 070° 7 kt METAR EDDS 121750Z AUTO 07007KT 050V110 CAVOK 25/06 Q1016 NOSIG
19:20
V
25 °C 10 km+ - 080° 080° 9 kt METAR EDDS 121720Z AUTO 08009KT CAVOK 25/06 Q1016 NOSIG
18:50
V
26 °C 10 km+ - 060° 060° 10 kt METAR EDDS 121650Z AUTO 06010KT CAVOK 26/06 Q1016 NOSIG
18:20
V
26 °C 10 km+ - 090° 090° 9 kt METAR EDDS 121620Z AUTO 09009KT CAVOK 26/06 Q1016 NOSIG
17:50
V
27 °C 10 km+ - 100° 100° 5 kt METAR EDDS 121550Z AUTO 10005KT 060V140 CAVOK 27/07 Q1016 NOSIG
17:20
V
27 °C 10 km+ - 080° 080° 10 kt METAR EDDS 121520Z AUTO 08010KT CAVOK 27/07 Q1017 NOSIG
16:50
V
26 °C 10 km+ - 080° 080° 10 kt METAR EDDS 121450Z AUTO 08010KT 060V120 CAVOK 26/06 Q1017 NOSIG
16:20
V
28 °C 10 km+ - 060° 060° 9 kt METAR EDDS 121420Z AUTO 06009KT 020V090 CAVOK 28/07 Q1017 NOSIG
15:50
V
28 °C 10 km+ - 070° 070° 9 kt METAR EDDS 121350Z AUTO 07009KT 040V110 CAVOK 28/07 Q1017 NOSIG
15:20
V
28 °C 10 km+ - 100° 100° 8 kt METAR EDDS 121320Z AUTO 10008KT 050V140 CAVOK 28/08 Q1017 NOSIG
14:50
V
26 °C 10 km+ - 080° 080° 9 kt METAR EDDS 121250Z AUTO 08009KT 040V120 CAVOK 26/07 Q1017 NOSIG
14:20
V
26 °C 10 km+ - 090° 090° 7 kt METAR EDDS 121220Z AUTO 09007KT 040V130 CAVOK 26/07 Q1017 NOSIG
13:50
V
25 °C 10 km+ - 080° 080° 7 kt METAR EDDS 121150Z AUTO 08007KT 050V110 CAVOK 25/07 Q1017 NOSIG
13:20
V
27 °C 10 km+ - 120° 120° 9 kt METAR EDDS 121120Z AUTO 12009KT 070V230 CAVOK 27/07 Q1018 NOSIG
12:50
V
25 °C 10 km+ - 090° 090° 7 kt METAR EDDS 121050Z AUTO 09007KT 040V130 CAVOK 25/07 Q1018 NOSIG
12:20
V
25 °C 10 km+ - 100° 100° 9 kt METAR EDDS 121020Z AUTO 10009KT 030V180 CAVOK 25/07 Q1018 NOSIG
11:50
V
25 °C 10 km+ - 060° 060° 7 kt METAR EDDS 120950Z AUTO 06007KT 350V110 CAVOK 25/08 Q1018 NOSIG
11:20
V
25 °C 10 km+ - 100° 100° 9 kt METAR EDDS 120920Z AUTO 10009KT 060V150 CAVOK 25/08 Q1019 NOSIG
10:50
V
24 °C 10 km+ - 090° 090° 7 kt METAR EDDS 120850Z AUTO 09007KT 050V140 CAVOK 24/08 Q1019 NOSIG
10:20
V
23 °C 10 km+ - 080° 080° 5 kt METAR EDDS 120820Z AUTO 08005KT 040V150 CAVOK 23/09 Q1019 NOSIG
09:50
V
22 °C 10 km+ - 080° 080° 8 kt METAR EDDS 120750Z AUTO 08008KT CAVOK 22/09 Q1019 NOSIG
09:20
V
21 °C 10 km+ - 080° 080° 7 kt METAR EDDS 120720Z AUTO 08007KT 040V120 CAVOK 21/09 Q1019 NOSIG
08:50
V
20 °C 10 km+ - 060° 060° 5 kt METAR EDDS 120650Z AUTO 06005KT CAVOK 20/09 Q1019 NOSIG
08:20
V
19 °C 10 km+ - Var Var 2 kt METAR EDDS 120620Z AUTO VRB02KT CAVOK 19/09 Q1019 NOSIG
07:50
V
17 °C 10 km+ - Var Var 2 kt METAR EDDS 120550Z AUTO VRB02KT CAVOK 17/09 Q1019 NOSIG
07:20
V
16 °C 10 km+ - Var Var 1 kt METAR EDDS 120520Z AUTO VRB01KT CAVOK 16/09 Q1019 NOSIG
06:50
V
16 °C 10 km+ - Var Var 1 kt METAR EDDS 120450Z AUTO VRB01KT CAVOK 16/08 Q1018 NOSIG
06:20
V
15 °C 10 km+ - Var Var 2 kt METAR EDDS 120420Z AUTO VRB02KT CAVOK 15/08 Q1018 NOSIG
05:50
V
14 °C 10 km+ - 300° 300° 3 kt METAR EDDS 120350Z AUTO 30003KT CAVOK 14/08 Q1018
05:20
V
15 °C 10 km+ - Var Var 1 kt METAR EDDS 120320Z AUTO VRB01KT CAVOK 15/08 Q1018
04:50
V
16 °C 10 km+ - Var Var 1 kt METAR EDDS 120250Z AUTO VRB01KT CAVOK 16/08 Q1019
04:20
V
15 °C 10 km+ - Var Var 2 kt METAR EDDS 120220Z AUTO VRB02KT CAVOK 15/08 Q1019
03:50
V
15 °C 10 km+ - Var Var 1 kt METAR EDDS 120150Z AUTO VRB01KT CAVOK 15/08 Q1019
03:20
V
15 °C 10 km+ - Var Var 2 kt METAR EDDS 120120Z AUTO VRB02KT CAVOK 15/08 Q1019
02:50
V
16 °C 10 km+ - 090° 090° 3 kt METAR EDDS 120050Z AUTO 09003KT CAVOK 16/08 Q1019
02:20
V
17 °C 10 km+ - 050° 050° 3 kt METAR EDDS 120020Z AUTO 05003KT 010V070 CAVOK 17/08 Q1019
01:50
V
16 °C 10 km+ - Var Var 2 kt METAR EDDS 112350Z AUTO VRB02KT CAVOK 16/08 Q1019
01:20
V
17 °C 10 km+ - Var Var 1 kt METAR EDDS 112320Z AUTO VRB01KT CAVOK 17/08 Q1019
00:50
V
17 °C 10 km+ - Var Var 1 kt METAR EDDS 112250Z AUTO VRB01KT CAVOK 17/08 Q1019
00:20
V
17 °C 10 km+ - 070° 070° 4 kt METAR EDDS 112220Z AUTO 07004KT 040V100 CAVOK 17/08 Q1019

11 août 2022

Temps Code Temps Temp. Vue Base cloud Vent METAR/SPECI
23:50
V
18 °C 10 km+ - 090° 090° 4 kt METAR EDDS 112150Z AUTO 09004KT CAVOK 18/07 Q1019
23:20
V
19 °C 10 km+ - 080° 080° 2 kt METAR EDDS 112120Z AUTO 08002KT CAVOK 19/07 Q1019
22:50
V
20 °C 10 km+ - Var 000° 0 kt METAR EDDS 112050Z AUTO 00000KT CAVOK 20/07 Q1019
22:20
V
21 °C 10 km+ - Var Var 1 kt METAR EDDS 112020Z AUTO VRB01KT CAVOK 21/07 Q1019
21:50
V
21 °C 10 km+ - Var Var 1 kt METAR EDDS 111950Z AUTO VRB01KT CAVOK 21/07 Q1019 NOSIG
21:20
V
21 °C 10 km+ - 040° 040° 3 kt METAR EDDS 111920Z AUTO 04003KT CAVOK 21/08 Q1019 NOSIG
20:50
V
23 °C 10 km+ - 080° 080° 2 kt METAR EDDS 111850Z AUTO 08002KT CAVOK 23/07 Q1018 NOSIG
20:20
V
25 °C 10 km+ - Var Var 2 kt METAR EDDS 111820Z AUTO VRB02KT CAVOK 25/06 Q1018 NOSIG
19:50
V
26 °C 10 km+ - 070° 070° 5 kt METAR EDDS 111750Z AUTO 07005KT CAVOK 26/07 Q1018 NOSIG
19:20
V
27 °C 10 km+ - 090° 090° 6 kt METAR EDDS 111720Z AUTO 09006KT 060V120 CAVOK 27/07 Q1018 NOSIG
18:50
V
28 °C 10 km+ - 120° 120° 5 kt METAR EDDS 111650Z AUTO 12005KT 080V200 CAVOK 28/06 Q1018 NOSIG
18:20
V
28 °C 10 km+ - 110° 110° 7 kt METAR EDDS 111620Z AUTO 11007KT 070V140 CAVOK 28/06 Q1018 NOSIG
17:50
V
28 °C 10 km+ - 090° 090° 5 kt METAR EDDS 111550Z AUTO 09005KT 050V140 CAVOK 28/06 Q1018 NOSIG
17:20
V
29 °C 10 km+ - 110° 110° 8 kt METAR EDDS 111520Z AUTO 11008KT 070V180 CAVOK 29/07 Q1019 NOSIG
16:50
V
28 °C 10 km+ - 120° 120° 7 kt METAR EDDS 111450Z AUTO 12007KT 070V190 CAVOK 28/06 Q1019 NOSIG
Données plus anciennes

Nous et des tiers suivons ton comportement sur Internet sur notre site Web à l'aide de cookies. Si tu continues, nous supposons que tu acceptes notre politique en matière de cookies. Apprendre plus